sensor_id;sensor_type;location;lat;lon;timestamp;temperature;humidity
21481;DHT22;10902;48.158;8.634;2023-07-28T00:00:24;15.20;99.90
21481;DHT22;10902;48.158;8.634;2023-07-28T00:03:09;15.20;99.90
21481;DHT22;10902;48.158;8.634;2023-07-28T00:05:55;15.10;99.90
21481;DHT22;10902;48.158;8.634;2023-07-28T00:08:41;15.00;99.90
21481;DHT22;10902;48.158;8.634;2023-07-28T00:11:26;15.10;99.90
21481;DHT22;10902;48.158;8.634;2023-07-28T00:14:12;15.20;99.90
21481;DHT22;10902;48.158;8.634;2023-07-28T00:16:57;15.00;99.90
21481;DHT22;10902;48.158;8.634;2023-07-28T00:19:43;15.00;99.90
21481;DHT22;10902;48.158;8.634;2023-07-28T00:22:28;15.30;99.90
21481;DHT22;10902;48.158;8.634;2023-07-28T00:25:14;15.50;99.90
21481;DHT22;10902;48.158;8.634;2023-07-28T00:28:00;15.30;99.90
21481;DHT22;10902;48.158;8.634;2023-07-28T00:30:49;15.30;99.90
21481;DHT22;10902;48.158;8.634;2023-07-28T00:33:37;15.20;99.90
21481;DHT22;10902;48.158;8.634;2023-07-28T00:36:23;15.30;99.90
21481;DHT22;10902;48.158;8.634;2023-07-28T00:39:08;15.20;99.90
21481;DHT22;10902;48.158;8.634;2023-07-28T00:41:54;15.00;99.90
21481;DHT22;10902;48.158;8.634;2023-07-28T00:44:39;15.10;99.90
21481;DHT22;10902;48.158;8.634;2023-07-28T00:47:25;15.10;99.90
21481;DHT22;10902;48.158;8.634;2023-07-28T00:50:11;15.00;99.90
21481;DHT22;10902;48.158;8.634;2023-07-28T00:52:57;15.20;99.90
21481;DHT22;10902;48.158;8.634;2023-07-28T00:55:43;15.40;99.90
21481;DHT22;10902;48.158;8.634;2023-07-28T00:58:30;15.10;99.90
21481;DHT22;10902;48.158;8.634;2023-07-28T01:01:16;14.90;99.90
21481;DHT22;10902;48.158;8.634;2023-07-28T01:04:01;15.20;99.90
21481;DHT22;10902;48.158;8.634;2023-07-28T01:06:56;15.10;99.90
21481;DHT22;10902;48.158;8.634;2023-07-28T01:09:48;15.00;99.90
21481;DHT22;10902;48.158;8.634;2023-07-28T01:12:35;14.90;99.90
21481;DHT22;10902;48.158;8.634;2023-07-28T01:15:21;14.80;99.90
21481;DHT22;10902;48.158;8.634;2023-07-28T01:18:07;14.70;99.90
21481;DHT22;10902;48.158;8.634;2023-07-28T01:20:56;14.50;99.90
21481;DHT22;10902;48.158;8.634;2023-07-28T01:23:59;14.40;99.90
21481;DHT22;10902;48.158;8.634;2023-07-28T01:26:47;14.60;99.90
21481;DHT22;10902;48.158;8.634;2023-07-28T01:29:34;14.70;99.90
21481;DHT22;10902;48.158;8.634;2023-07-28T01:32:20;14.60;99.90
21481;DHT22;10902;48.158;8.634;2023-07-28T01:35:06;14.60;99.90
21481;DHT22;10902;48.158;8.634;2023-07-28T01:37:52;14.70;99.90
21481;DHT22;10902;48.158;8.634;2023-07-28T01:40:38;14.60;99.90
21481;DHT22;10902;48.158;8.634;2023-07-28T01:43:24;14.50;99.90
21481;DHT22;10902;48.158;8.634;2023-07-28T01:46:10;14.40;99.90
21481;DHT22;10902;48.158;8.634;2023-07-28T01:48:55;14.40;99.90
21481;DHT22;10902;48.158;8.634;2023-07-28T01:51:41;14.10;99.90
21481;DHT22;10902;48.158;8.634;2023-07-28T01:54:26;13.90;99.90
21481;DHT22;10902;48.158;8.634;2023-07-28T01:57:12;13.80;99.90
21481;DHT22;10902;48.158;8.634;2023-07-28T01:59:57;13.60;99.90
21481;DHT22;10902;48.158;8.634;2023-07-28T02:02:43;13.50;99.90
21481;DHT22;10902;48.158;8.634;2023-07-28T02:05:29;13.60;99.90
21481;DHT22;10902;48.158;8.634;2023-07-28T02:08:15;13.50;99.90
21481;DHT22;10902;48.158;8.634;2023-07-28T02:11:00;13.60;99.90
21481;DHT22;10902;48.158;8.634;2023-07-28T02:13:46;14.00;99.90
21481;DHT22;10902;48.158;8.634;2023-07-28T02:16:32;14.10;99.90
21481;DHT22;10902;48.158;8.634;2023-07-28T02:19:17;14.20;99.90
21481;DHT22;10902;48.158;8.634;2023-07-28T02:22:03;14.20;99.90
21481;DHT22;10902;48.158;8.634;2023-07-28T02:24:49;14.20;99.90
21481;DHT22;10902;48.158;8.634;2023-07-28T02:27:34;13.80;99.90
21481;DHT22;10902;48.158;8.634;2023-07-28T02:30:20;13.70;99.90
21481;DHT22;10902;48.158;8.634;2023-07-28T02:33:05;13.70;99.90
21481;DHT22;10902;48.158;8.634;2023-07-28T02:35:51;13.90;99.90
21481;DHT22;10902;48.158;8.634;2023-07-28T02:38:37;13.90;99.90
21481;DHT22;10902;48.158;8.634;2023-07-28T02:41:22;13.80;99.90
21481;DHT22;10902;48.158;8.634;2023-07-28T02:44:08;13.60;99.90
21481;DHT22;10902;48.158;8.634;2023-07-28T02:46:53;13.50;99.90
21481;DHT22;10902;48.158;8.634;2023-07-28T02:49:40;13.50;99.90
21481;DHT22;10902;48.158;8.634;2023-07-28T02:52:26;13.40;99.90
21481;DHT22;10902;48.158;8.634;2023-07-28T02:55:12;13.50;99.90
21481;DHT22;10902;48.158;8.634;2023-07-28T02:57:57;13.50;99.90
21481;DHT22;10902;48.158;8.634;2023-07-28T03:00:44;13.50;99.90
21481;DHT22;10902;48.158;8.634;2023-07-28T03:03:31;13.50;99.90
21481;DHT22;10902;48.158;8.634;2023-07-28T03:06:17;13.50;99.90
21481;DHT22;10902;48.158;8.634;2023-07-28T03:09:03;13.50;99.90
21481;DHT22;10902;48.158;8.634;2023-07-28T03:11:48;13.40;99.90
21481;DHT22;10902;48.158;8.634;2023-07-28T03:14:34;13.40;99.90
21481;DHT22;10902;48.158;8.634;2023-07-28T03:17:19;13.40;99.90
21481;DHT22;10902;48.158;8.634;2023-07-28T03:20:05;13.50;99.90
21481;DHT22;10902;48.158;8.634;2023-07-28T03:22:51;13.50;99.90
21481;DHT22;10902;48.158;8.634;2023-07-28T03:25:37;13.60;99.90
21481;DHT22;10902;48.158;8.634;2023-07-28T03:28:22;13.70;99.90
21481;DHT22;10902;48.158;8.634;2023-07-28T03:31:08;13.80;99.90
21481;DHT22;10902;48.158;8.634;2023-07-28T03:33:53;13.80;99.90
21481;DHT22;10902;48.158;8.634;2023-07-28T03:36:39;13.80;99.90
21481;DHT22;10902;48.158;8.634;2023-07-28T03:39:25;13.60;99.90
21481;DHT22;10902;48.158;8.634;2023-07-28T03:42:10;13.50;99.90
21481;DHT22;10902;48.158;8.634;2023-07-28T03:44:56;13.50;99.90
21481;DHT22;10902;48.158;8.634;2023-07-28T03:47:42;13.70;99.90
21481;DHT22;10902;48.158;8.634;2023-07-28T03:50:27;13.70;99.90
21481;DHT22;10902;48.158;8.634;2023-07-28T03:53:13;13.70;99.90
21481;DHT22;10902;48.158;8.634;2023-07-28T03:55:58;13.70;99.90
21481;DHT22;10902;48.158;8.634;2023-07-28T03:58:44;13.50;99.90
21481;DHT22;10902;48.158;8.634;2023-07-28T04:01:30;13.70;99.90
21481;DHT22;10902;48.158;8.634;2023-07-28T04:04:15;13.80;99.90
21481;DHT22;10902;48.158;8.634;2023-07-28T04:07:01;13.80;99.90
21481;DHT22;10902;48.158;8.634;2023-07-28T04:09:46;13.80;99.90
21481;DHT22;10902;48.158;8.634;2023-07-28T04:12:32;13.80;99.90
21481;DHT22;10902;48.158;8.634;2023-07-28T04:15:18;13.70;99.90
21481;DHT22;10902;48.158;8.634;2023-07-28T04:18:03;13.70;99.90
21481;DHT22;10902;48.158;8.634;2023-07-28T04:20:49;13.90;99.90
21481;DHT22;10902;48.158;8.634;2023-07-28T04:23:34;14.10;99.90
21481;DHT22;10902;48.158;8.634;2023-07-28T04:26:20;14.00;99.90
21481;DHT22;10902;48.158;8.634;2023-07-28T04:29:06;14.00;99.90
21481;DHT22;10902;48.158;8.634;2023-07-28T04:31:51;14.10;99.90
21481;DHT22;10902;48.158;8.634;2023-07-28T04:34:37;14.00;99.90
21481;DHT22;10902;48.158;8.634;2023-07-28T04:37:22;14.10;99.90
21481;DHT22;10902;48.158;8.634;2023-07-28T04:40:08;14.10;99.90
21481;DHT22;10902;48.158;8.634;2023-07-28T04:42:54;14.00;99.90
21481;DHT22;10902;48.158;8.634;2023-07-28T04:45:39;13.90;99.90
21481;DHT22;10902;48.158;8.634;2023-07-28T04:48:26;13.80;99.90
21481;DHT22;10902;48.158;8.634;2023-07-28T04:51:11;13.70;99.90
21481;DHT22;10902;48.158;8.634;2023-07-28T04:53:57;13.70;99.90
21481;DHT22;10902;48.158;8.634;2023-07-28T04:56:43;13.70;99.90
21481;DHT22;10902;48.158;8.634;2023-07-28T04:59:28;13.70;99.90
21481;DHT22;10902;48.158;8.634;2023-07-28T05:02:14;13.70;99.90
21481;DHT22;10902;48.158;8.634;2023-07-28T05:04:59;13.80;99.90
21481;DHT22;10902;48.158;8.634;2023-07-28T05:07:45;13.90;99.90
21481;DHT22;10902;48.158;8.634;2023-07-28T05:10:31;14.10;99.90
21481;DHT22;10902;48.158;8.634;2023-07-28T05:13:16;14.20;99.90
21481;DHT22;10902;48.158;8.634;2023-07-28T05:16:02;14.30;99.90
21481;DHT22;10902;48.158;8.634;2023-07-28T05:18:47;14.30;99.90
21481;DHT22;10902;48.158;8.634;2023-07-28T05:21:33;14.40;99.90
21481;DHT22;10902;48.158;8.634;2023-07-28T05:24:19;14.40;99.90
21481;DHT22;10902;48.158;8.634;2023-07-28T05:27:04;14.50;99.90
21481;DHT22;10902;48.158;8.634;2023-07-28T05:29:50;14.50;99.90
21481;DHT22;10902;48.158;8.634;2023-07-28T05:32:36;14.60;99.90
21481;DHT22;10902;48.158;8.634;2023-07-28T05:35:21;14.70;99.90
21481;DHT22;10902;48.158;8.634;2023-07-28T05:38:07;14.70;99.90
21481;DHT22;10902;48.158;8.634;2023-07-28T05:40:59;14.80;99.90
21481;DHT22;10902;48.158;8.634;2023-07-28T05:43:48;14.90;99.90
21481;DHT22;10902;48.158;8.634;2023-07-28T05:46:34;14.90;99.90
21481;DHT22;10902;48.158;8.634;2023-07-28T05:49:19;15.00;99.90
21481;DHT22;10902;48.158;8.634;2023-07-28T05:52:05;15.10;99.90
21481;DHT22;10902;48.158;8.634;2023-07-28T05:54:51;15.10;99.90
21481;DHT22;10902;48.158;8.634;2023-07-28T05:57:36;15.10;99.90
21481;DHT22;10902;48.158;8.634;2023-07-28T06:00:22;15.20;99.90
21481;DHT22;10902;48.158;8.634;2023-07-28T06:03:10;15.20;99.90
21481;DHT22;10902;48.158;8.634;2023-07-28T06:05:57;15.20;99.90
21481;DHT22;10902;48.158;8.634;2023-07-28T06:08:42;15.20;99.90
21481;DHT22;10902;48.158;8.634;2023-07-28T06:11:28;15.30;99.90
21481;DHT22;10902;48.158;8.634;2023-07-28T06:14:13;15.30;99.90
21481;DHT22;10902;48.158;8.634;2023-07-28T06:16:59;15.50;99.90
21481;DHT22;10902;48.158;8.634;2023-07-28T06:19:45;15.70;99.90
21481;DHT22;10902;48.158;8.634;2023-07-28T06:22:30;16.00;99.90
21481;DHT22;10902;48.158;8.634;2023-07-28T06:25:16;16.40;99.90
21481;DHT22;10902;48.158;8.634;2023-07-28T06:28:02;16.70;99.90
21481;DHT22;10902;48.158;8.634;2023-07-28T06:30:53;16.90;99.90
21481;DHT22;10902;48.158;8.634;2023-07-28T06:33:39;17.30;99.90
21481;DHT22;10902;48.158;8.634;2023-07-28T06:36:25;17.60;99.90
21481;DHT22;10902;48.158;8.634;2023-07-28T06:39:10;17.90;99.90
21481;DHT22;10902;48.158;8.634;2023-07-28T06:41:56;18.10;99.90
21481;DHT22;10902;48.158;8.634;2023-07-28T06:44:42;18.40;99.90
21481;DHT22;10902;48.158;8.634;2023-07-28T06:47:28;18.50;99.90
21481;DHT22;10902;48.158;8.634;2023-07-28T06:50:14;18.50;99.90
21481;DHT22;10902;48.158;8.634;2023-07-28T06:53:00;18.30;99.90
21481;DHT22;10902;48.158;8.634;2023-07-28T06:55:45;18.10;99.90
21481;DHT22;10902;48.158;8.634;2023-07-28T06:58:31;18.00;99.90
21481;DHT22;10902;48.158;8.634;2023-07-28T07:01:16;18.10;99.90
21481;DHT22;10902;48.158;8.634;2023-07-28T07:04:03;18.20;99.90
21481;DHT22;10902;48.158;8.634;2023-07-28T07:06:50;18.40;99.90
21481;DHT22;10902;48.158;8.634;2023-07-28T07:09:36;18.50;99.90
21481;DHT22;10902;48.158;8.634;2023-07-28T07:12:22;18.70;99.90
21481;DHT22;10902;48.158;8.634;2023-07-28T07:15:07;18.80;99.90
21481;DHT22;10902;48.158;8.634;2023-07-28T07:17:54;18.70;99.90
21481;DHT22;10902;48.158;8.634;2023-07-28T07:20:39;18.80;99.90
21481;DHT22;10902;48.158;8.634;2023-07-28T07:23:25;18.70;99.90
21481;DHT22;10902;48.158;8.634;2023-07-28T07:26:11;18.70;99.90
21481;DHT22;10902;48.158;8.634;2023-07-28T07:28:56;18.70;99.90
21481;DHT22;10902;48.158;8.634;2023-07-28T07:31:42;18.70;99.90
21481;DHT22;10902;48.158;8.634;2023-07-28T07:34:27;18.80;99.90
21481;DHT22;10902;48.158;8.634;2023-07-28T07:37:13;19.00;99.90
21481;DHT22;10902;48.158;8.634;2023-07-28T07:39:59;19.10;99.90
21481;DHT22;10902;48.158;8.634;2023-07-28T07:42:47;19.20;99.90
21481;DHT22;10902;48.158;8.634;2023-07-28T07:45:33;19.40;99.90
21481;DHT22;10902;48.158;8.634;2023-07-28T07:48:19;19.30;99.90
21481;DHT22;10902;48.158;8.634;2023-07-28T07:51:06;19.50;99.90
21481;DHT22;10902;48.158;8.634;2023-07-28T07:53:52;19.90;99.90
21481;DHT22;10902;48.158;8.634;2023-07-28T07:56:38;20.00;99.90
21481;DHT22;10902;48.158;8.634;2023-07-28T07:59:24;20.20;99.90
21481;DHT22;10902;48.158;8.634;2023-07-28T08:02:13;20.70;99.90
21481;DHT22;10902;48.158;8.634;2023-07-28T08:04:58;20.80;99.90
21481;DHT22;10902;48.158;8.634;2023-07-28T08:07:44;21.00;99.90
21481;DHT22;10902;48.158;8.634;2023-07-28T08:10:30;21.00;99.90
21481;DHT22;10902;48.158;8.634;2023-07-28T08:13:15;21.20;99.90
21481;DHT22;10902;48.158;8.634;2023-07-28T08:16:01;21.40;99.90
21481;DHT22;10902;48.158;8.634;2023-07-28T08:18:47;21.10;99.90
21481;DHT22;10902;48.158;8.634;2023-07-28T08:21:32;20.90;99.90
21481;DHT22;10902;48.158;8.634;2023-07-28T08:24:21;21.00;99.90
21481;DHT22;10902;48.158;8.634;2023-07-28T08:27:07;21.10;99.90
21481;DHT22;10902;48.158;8.634;2023-07-28T08:29:53;21.30;99.90
21481;DHT22;10902;48.158;8.634;2023-07-28T08:32:38;21.60;99.90
21481;DHT22;10902;48.158;8.634;2023-07-28T08:35:24;21.50;99.90
21481;DHT22;10902;48.158;8.634;2023-07-28T08:38:09;21.70;99.90
21481;DHT22;10902;48.158;8.634;2023-07-28T08:40:57;21.60;99.90
21481;DHT22;10902;48.158;8.634;2023-07-28T08:43:43;21.90;99.90
21481;DHT22;10902;48.158;8.634;2023-07-28T08:46:29;21.90;99.90
21481;DHT22;10902;48.158;8.634;2023-07-28T08:49:16;21.80;99.90
21481;DHT22;10902;48.158;8.634;2023-07-28T08:52:04;21.70;99.90
21481;DHT22;10902;48.158;8.634;2023-07-28T08:54:50;21.50;99.90
21481;DHT22;10902;48.158;8.634;2023-07-28T08:57:36;22.00;99.90
21481;DHT22;10902;48.158;8.634;2023-07-28T09:00:23;22.10;99.90
21481;DHT22;10902;48.158;8.634;2023-07-28T09:03:10;22.30;99.90
21481;DHT22;10902;48.158;8.634;2023-07-28T09:06:03;22.30;99.90
21481;DHT22;10902;48.158;8.634;2023-07-28T09:08:48;22.90;99.90
21481;DHT22;10902;48.158;8.634;2023-07-28T09:11:44;22.90;99.90
21481;DHT22;10902;48.158;8.634;2023-07-28T09:14:30;22.80;99.90
21481;DHT22;10902;48.158;8.634;2023-07-28T09:17:16;22.80;99.90
21481;DHT22;10902;48.158;8.634;2023-07-28T09:20:03;23.20;99.90
21481;DHT22;10902;48.158;8.634;2023-07-28T09:22:51;23.20;99.90
21481;DHT22;10902;48.158;8.634;2023-07-28T09:25:37;22.50;99.90
21481;DHT22;10902;48.158;8.634;2023-07-28T09:28:38;22.50;99.90
21481;DHT22;10902;48.158;8.634;2023-07-28T09:31:30;22.70;99.90
21481;DHT22;10902;48.158;8.634;2023-07-28T09:34:27;22.50;99.90
21481;DHT22;10902;48.158;8.634;2023-07-28T09:37:13;22.60;99.90
21481;DHT22;10902;48.158;8.634;2023-07-28T09:39:59;22.90;99.90
21481;DHT22;10902;48.158;8.634;2023-07-28T09:42:47;22.80;99.90
21481;DHT22;10902;48.158;8.634;2023-07-28T09:45:36;22.70;99.90
21481;DHT22;10902;48.158;8.634;2023-07-28T09:48:23;23.00;99.90
21481;DHT22;10902;48.158;8.634;2023-07-28T09:51:16;23.00;99.90
21481;DHT22;10902;48.158;8.634;2023-07-28T09:54:16;22.70;99.90
21481;DHT22;10902;48.158;8.634;2023-07-28T09:57:04;23.00;99.90
21481;DHT22;10902;48.158;8.634;2023-07-28T09:59:54;22.90;99.90
21481;DHT22;10902;48.158;8.634;2023-07-28T10:02:40;22.60;99.90
21481;DHT22;10902;48.158;8.634;2023-07-28T10:05:26;22.70;99.90
21481;DHT22;10902;48.158;8.634;2023-07-28T10:08:13;22.60;99.90
21481;DHT22;10902;48.158;8.634;2023-07-28T10:10:59;22.60;99.90
21481;DHT22;10902;48.158;8.634;2023-07-28T10:13:46;22.90;99.90
21481;DHT22;10902;48.158;8.634;2023-07-28T10:16:39;23.10;99.90
21481;DHT22;10902;48.158;8.634;2023-07-28T10:19:26;23.30;99.90
21481;DHT22;10902;48.158;8.634;2023-07-28T10:22:12;23.60;99.90
21481;DHT22;10902;48.158;8.634;2023-07-28T10:25:01;23.70;99.90
21481;DHT22;10902;48.158;8.634;2023-07-28T10:27:46;23.50;99.90
21481;DHT22;10902;48.158;8.634;2023-07-28T10:30:37;23.90;99.90
21481;DHT22;10902;48.158;8.634;2023-07-28T10:39:17;22.20;99.90
21481;DHT22;10902;48.158;8.634;2023-07-28T10:42:07;22.10;99.90
21481;DHT22;10902;48.158;8.634;2023-07-28T10:44:54;21.90;99.90
21481;DHT22;10902;48.158;8.634;2023-07-28T10:47:41;21.90;99.90
21481;DHT22;10902;48.158;8.634;2023-07-28T10:50:31;21.80;99.90
21481;DHT22;10902;48.158;8.634;2023-07-28T10:53:16;21.70;99.90
21481;DHT22;10902;48.158;8.634;2023-07-28T10:56:03;21.50;99.90
21481;DHT22;10902;48.158;8.634;2023-07-28T10:59:03;21.60;99.90
21481;DHT22;10902;48.158;8.634;2023-07-28T11:01:49;21.60;99.90
21481;DHT22;10902;48.158;8.634;2023-07-28T11:04:35;22.00;99.90
21481;DHT22;10902;48.158;8.634;2023-07-28T11:07:20;22.40;99.90
21481;DHT22;10902;48.158;8.634;2023-07-28T11:10:06;22.30;99.90
21481;DHT22;10902;48.158;8.634;2023-07-28T11:12:52;22.30;99.90
21481;DHT22;10902;48.158;8.634;2023-07-28T11:15:38;22.80;99.90
21481;DHT22;10902;48.158;8.634;2023-07-28T11:18:26;23.10;99.90
21481;DHT22;10902;48.158;8.634;2023-07-28T11:21:11;23.50;99.90
21481;DHT22;10902;48.158;8.634;2023-07-28T11:23:57;23.50;99.90
21481;DHT22;10902;48.158;8.634;2023-07-28T11:26:43;23.20;99.90
21481;DHT22;10902;48.158;8.634;2023-07-28T11:29:32;23.20;99.90
21481;DHT22;10902;48.158;8.634;2023-07-28T11:32:17;23.60;99.90
21481;DHT22;10902;48.158;8.634;2023-07-28T11:35:07;23.60;99.90
21481;DHT22;10902;48.158;8.634;2023-07-28T11:37:55;23.10;99.90
21481;DHT22;10902;48.158;8.634;2023-07-28T11:40:41;23.10;99.90
21481;DHT22;10902;48.158;8.634;2023-07-28T11:43:29;22.90;99.90
21481;DHT22;10902;48.158;8.634;2023-07-28T11:46:33;22.50;99.90
21481;DHT22;10902;48.158;8.634;2023-07-28T11:49:20;22.50;99.90
21481;DHT22;10902;48.158;8.634;2023-07-28T11:52:08;22.50;99.90
21481;DHT22;10902;48.158;8.634;2023-07-28T11:54:54;22.30;99.90
21481;DHT22;10902;48.158;8.634;2023-07-28T11:57:39;22.30;99.90
21481;DHT22;10902;48.158;8.634;2023-07-28T12:00:32;22.40;99.90
21481;DHT22;10902;48.158;8.634;2023-07-28T12:03:29;22.70;99.90
21481;DHT22;10902;48.158;8.634;2023-07-28T12:06:15;22.40;99.90
21481;DHT22;10902;48.158;8.634;2023-07-28T12:09:06;22.30;99.90
21481;DHT22;10902;48.158;8.634;2023-07-28T12:11:53;22.30;99.90
21481;DHT22;10902;48.158;8.634;2023-07-28T12:14:39;22.30;99.90
21481;DHT22;10902;48.158;8.634;2023-07-28T12:17:26;22.00;99.90
21481;DHT22;10902;48.158;8.634;2023-07-28T12:20:13;22.20;99.90
21481;DHT22;10902;48.158;8.634;2023-07-28T12:23:02;22.40;99.90
21481;DHT22;10902;48.158;8.634;2023-07-28T12:25:48;22.30;99.90
21481;DHT22;10902;48.158;8.634;2023-07-28T12:28:34;22.60;99.90
21481;DHT22;10902;48.158;8.634;2023-07-28T12:31:20;23.00;99.90
21481;DHT22;10902;48.158;8.634;2023-07-28T12:34:05;23.80;99.90
21481;DHT22;10902;48.158;8.634;2023-07-28T12:36:52;24.10;99.90
21481;DHT22;10902;48.158;8.634;2023-07-28T12:39:38;23.70;99.90
21481;DHT22;10902;48.158;8.634;2023-07-28T12:42:24;23.60;99.90
21481;DHT22;10902;48.158;8.634;2023-07-28T12:45:10;23.10;99.90
21481;DHT22;10902;48.158;8.634;2023-07-28T12:47:56;23.00;99.90
21481;DHT22;10902;48.158;8.634;2023-07-28T12:50:42;23.10;99.90
21481;DHT22;10902;48.158;8.634;2023-07-28T12:53:27;23.30;99.90
21481;DHT22;10902;48.158;8.634;2023-07-28T12:56:13;23.50;99.90
21481;DHT22;10902;48.158;8.634;2023-07-28T12:58:59;23.30;99.90
21481;DHT22;10902;48.158;8.634;2023-07-28T13:01:44;22.80;99.90
21481;DHT22;10902;48.158;8.634;2023-07-28T13:04:30;22.80;99.90
21481;DHT22;10902;48.158;8.634;2023-07-28T13:07:15;22.90;99.90
21481;DHT22;10902;48.158;8.634;2023-07-28T13:10:01;22.70;99.90
21481;DHT22;10902;48.158;8.634;2023-07-28T13:12:47;22.50;99.90
21481;DHT22;10902;48.158;8.634;2023-07-28T13:15:33;22.50;99.90
21481;DHT22;10902;48.158;8.634;2023-07-28T13:18:18;22.40;99.90
21481;DHT22;10902;48.158;8.634;2023-07-28T13:21:04;22.20;99.90
21481;DHT22;10902;48.158;8.634;2023-07-28T13:23:49;22.20;99.90
21481;DHT22;10902;48.158;8.634;2023-07-28T13:26:35;21.90;99.90
21481;DHT22;10902;48.158;8.634;2023-07-28T13:29:21;21.70;99.90
21481;DHT22;10902;48.158;8.634;2023-07-28T13:32:16;21.60;99.90
21481;DHT22;10902;48.158;8.634;2023-07-28T13:35:02;21.70;99.90
21481;DHT22;10902;48.158;8.634;2023-07-28T13:37:49;21.90;99.90
21481;DHT22;10902;48.158;8.634;2023-07-28T13:40:35;22.10;99.90
21481;DHT22;10902;48.158;8.634;2023-07-28T13:43:20;22.30;99.90
21481;DHT22;10902;48.158;8.634;2023-07-28T13:46:06;21.70;99.90
21481;DHT22;10902;48.158;8.634;2023-07-28T13:48:52;21.50;99.90
21481;DHT22;10902;48.158;8.634;2023-07-28T13:51:38;21.50;99.90
21481;DHT22;10902;48.158;8.634;2023-07-28T13:54:23;21.30;99.90
21481;DHT22;10902;48.158;8.634;2023-07-28T13:57:09;21.10;99.90
21481;DHT22;10902;48.158;8.634;2023-07-28T13:59:54;21.10;99.90
21481;DHT22;10902;48.158;8.634;2023-07-28T14:03:09;20.70;99.90
21481;DHT22;10902;48.158;8.634;2023-07-28T14:05:58;19.00;99.90
21481;DHT22;10902;48.158;8.634;2023-07-28T14:09:11;18.50;99.90
21481;DHT22;10902;48.158;8.634;2023-07-28T14:12:46;18.80;99.90
21481;DHT22;10902;48.158;8.634;2023-07-28T14:15:32;19.30;99.90
21481;DHT22;10902;48.158;8.634;2023-07-28T14:18:18;19.60;99.90
21481;DHT22;10902;48.158;8.634;2023-07-28T14:21:04;20.10;99.90
21481;DHT22;10902;48.158;8.634;2023-07-28T14:23:50;20.60;99.90
21481;DHT22;10902;48.158;8.634;2023-07-28T14:26:35;21.30;99.90
21481;DHT22;10902;48.158;8.634;2023-07-28T14:29:21;21.60;99.90
21481;DHT22;10902;48.158;8.634;2023-07-28T14:32:08;21.80;99.90
21481;DHT22;10902;48.158;8.634;2023-07-28T14:34:53;21.60;99.90
21481;DHT22;10902;48.158;8.634;2023-07-28T14:37:40;21.50;99.90
21481;DHT22;10902;48.158;8.634;2023-07-28T14:40:25;21.20;99.90
21481;DHT22;10902;48.158;8.634;2023-07-28T14:43:12;21.10;99.90
21481;DHT22;10902;48.158;8.634;2023-07-28T14:45:58;21.40;99.90
21481;DHT22;10902;48.158;8.634;2023-07-28T14:48:43;21.40;99.90
21481;DHT22;10902;48.158;8.634;2023-07-28T14:51:29;21.30;99.90
21481;DHT22;10902;48.158;8.634;2023-07-28T14:54:15;21.40;99.90
21481;DHT22;10902;48.158;8.634;2023-07-28T14:57:00;21.20;99.90
21481;DHT22;10902;48.158;8.634;2023-07-28T14:59:46;21.10;99.90
21481;DHT22;10902;48.158;8.634;2023-07-28T15:02:33;21.10;99.90
21481;DHT22;10902;48.158;8.634;2023-07-28T15:05:18;21.10;99.90
21481;DHT22;10902;48.158;8.634;2023-07-28T15:08:04;21.20;99.90
21481;DHT22;10902;48.158;8.634;2023-07-28T15:10:50;21.10;99.90
21481;DHT22;10902;48.158;8.634;2023-07-28T15:13:36;21.10;99.90
21481;DHT22;10902;48.158;8.634;2023-07-28T15:16:22;21.10;99.90
21481;DHT22;10902;48.158;8.634;2023-07-28T15:19:07;21.10;99.90
21481;DHT22;10902;48.158;8.634;2023-07-28T15:21:53;21.10;99.90
21481;DHT22;10902;48.158;8.634;2023-07-28T15:24:39;21.00;99.90
21481;DHT22;10902;48.158;8.634;2023-07-28T15:27:24;21.00;99.90
21481;DHT22;10902;48.158;8.634;2023-07-28T15:30:10;20.80;99.90
21481;DHT22;10902;48.158;8.634;2023-07-28T15:32:55;20.70;99.90
21481;DHT22;10902;48.158;8.634;2023-07-28T15:35:41;20.50;99.90
21481;DHT22;10902;48.158;8.634;2023-07-28T15:38:27;20.40;99.90
21481;DHT22;10902;48.158;8.634;2023-07-28T15:41:12;19.90;99.90
21481;DHT22;10902;48.158;8.634;2023-07-28T15:43:58;19.70;99.90
21481;DHT22;10902;48.158;8.634;2023-07-28T15:46:44;19.90;99.90
21481;DHT22;10902;48.158;8.634;2023-07-28T15:49:29;19.90;99.90
21481;DHT22;10902;48.158;8.634;2023-07-28T15:52:15;19.90;99.90
21481;DHT22;10902;48.158;8.634;2023-07-28T15:55:00;19.90;99.90
21481;DHT22;10902;48.158;8.634;2023-07-28T15:57:48;19.90;99.90
21481;DHT22;10902;48.158;8.634;2023-07-28T16:00:34;19.80;99.90
21481;DHT22;10902;48.158;8.634;2023-07-28T16:03:19;19.50;99.90
21481;DHT22;10902;48.158;8.634;2023-07-28T16:06:05;19.20;99.90
21481;DHT22;10902;48.158;8.634;2023-07-28T16:08:51;19.00;99.90
21481;DHT22;10902;48.158;8.634;2023-07-28T16:11:37;18.70;99.90
21481;DHT22;10902;48.158;8.634;2023-07-28T16:14:23;18.50;99.90
21481;DHT22;10902;48.158;8.634;2023-07-28T16:17:08;18.20;99.90
21481;DHT22;10902;48.158;8.634;2023-07-28T16:19:54;18.10;99.90
21481;DHT22;10902;48.158;8.634;2023-07-28T16:22:39;18.00;99.90
21481;DHT22;10902;48.158;8.634;2023-07-28T16:25:25;17.90;99.90
21481;DHT22;10902;48.158;8.634;2023-07-28T16:28:11;17.80;99.90
21481;DHT22;10902;48.158;8.634;2023-07-28T16:30:56;17.70;99.90
21481;DHT22;10902;48.158;8.634;2023-07-28T16:33:42;17.60;99.90
21481;DHT22;10902;48.158;8.634;2023-07-28T16:36:29;17.60;99.90
21481;DHT22;10902;48.158;8.634;2023-07-28T16:39:15;17.50;99.90
21481;DHT22;10902;48.158;8.634;2023-07-28T16:42:00;17.50;99.90
21481;DHT22;10902;48.158;8.634;2023-07-28T16:44:47;17.40;99.90
21481;DHT22;10902;48.158;8.634;2023-07-28T16:47:33;17.30;99.90
21481;DHT22;10902;48.158;8.634;2023-07-28T16:50:22;17.30;99.90
21481;DHT22;10902;48.158;8.634;2023-07-28T16:53:07;17.20;99.90
21481;DHT22;10902;48.158;8.634;2023-07-28T16:55:53;17.10;99.90
21481;DHT22;10902;48.158;8.634;2023-07-28T16:58:38;17.00;99.90
21481;DHT22;10902;48.158;8.634;2023-07-28T17:01:24;17.10;99.90
21481;DHT22;10902;48.158;8.634;2023-07-28T17:04:09;17.10;99.90
21481;DHT22;10902;48.158;8.634;2023-07-28T17:06:55;17.10;99.90
21481;DHT22;10902;48.158;8.634;2023-07-28T17:09:42;17.10;99.90
21481;DHT22;10902;48.158;8.634;2023-07-28T17:12:27;17.10;99.90
21481;DHT22;10902;48.158;8.634;2023-07-28T17:15:13;17.20;99.90
21481;DHT22;10902;48.158;8.634;2023-07-28T17:17:59;17.30;99.90
21481;DHT22;10902;48.158;8.634;2023-07-28T17:20:45;17.90;99.90
21481;DHT22;10902;48.158;8.634;2023-07-28T17:23:31;18.30;99.90
21481;DHT22;10902;48.158;8.634;2023-07-28T17:26:17;18.30;99.90
21481;DHT22;10902;48.158;8.634;2023-07-28T17:29:02;19.00;99.90
21481;DHT22;10902;48.158;8.634;2023-07-28T17:31:53;20.90;99.90
21481;DHT22;10902;48.158;8.634;2023-07-28T17:34:45;22.80;99.90
21481;DHT22;10902;48.158;8.634;2023-07-28T17:37:31;23.70;99.90